createdAt,value
2019-02-07T00:01:07.922Z,66.20
2019-02-07T00:03:36.912Z,67.00
2019-02-07T00:06:06.096Z,67.00
2019-02-07T00:08:35.138Z,66.90
2019-02-07T00:11:04.347Z,65.80
2019-02-07T00:13:33.294Z,66.10
2019-02-07T00:16:02.200Z,66.60
2019-02-07T00:18:31.434Z,66.80
2019-02-07T00:21:00.785Z,68.20
2019-02-07T00:23:29.769Z,67.40
2019-02-07T00:25:58.728Z,68.20
2019-02-07T00:28:28.181Z,68.30
2019-02-07T00:30:57.392Z,68.00
2019-02-07T00:33:26.419Z,67.40
2019-02-07T00:35:55.933Z,67.70
2019-02-07T00:38:24.860Z,67.40
2019-02-07T00:40:53.698Z,68.10
2019-02-07T00:43:22.610Z,68.70
2019-02-07T00:45:51.470Z,67.10
2019-02-07T00:48:20.665Z,68.00
2019-02-07T00:50:50.232Z,68.60
2019-02-07T00:53:19.192Z,68.40
2019-02-07T00:55:48.520Z,67.20
2019-02-07T00:58:17.795Z,66.80
2019-02-07T01:00:46.760Z,67.70
2019-02-07T01:03:15.782Z,67.70
2019-02-07T01:05:45.357Z,68.10
2019-02-07T01:08:14.613Z,68.30
2019-02-07T01:10:43.806Z,68.70
2019-02-07T01:13:12.912Z,68.60
2019-02-07T01:15:41.911Z,68.30
2019-02-07T01:18:10.832Z,68.80
2019-02-07T01:20:40.279Z,68.70
2019-02-07T01:23:09.096Z,68.40
2019-02-07T01:25:38.014Z,69.00
2019-02-07T01:28:07.111Z,69.20
2019-02-07T01:30:36.564Z,69.70
2019-02-07T01:33:05.695Z,69.30
2019-02-07T01:35:35.136Z,70.20
2019-02-07T01:38:04.220Z,69.60
2019-02-07T01:40:33.134Z,70.60
2019-02-07T01:43:02.126Z,69.70
2019-02-07T01:45:31.250Z,69.60
2019-02-07T01:48:00.257Z,68.90
2019-02-07T01:50:29.702Z,68.40
2019-02-07T01:52:58.647Z,68.20
2019-02-07T01:55:27.738Z,67.80
2019-02-07T01:57:56.835Z,68.20
2019-02-07T02:00:26.087Z,68.50
2019-02-07T02:02:55.029Z,68.20
2019-02-07T02:05:24.132Z,67.90
2019-02-07T02:07:53.115Z,67.40
2019-02-07T02:10:23.906Z,67.60
2019-02-07T02:12:53.195Z,66.80
2019-02-07T02:15:24.896Z,67.90
2019-02-07T02:17:54.080Z,68.00
2019-02-07T02:20:23.923Z,68.00
2019-02-07T02:22:54.142Z,68.10
2019-02-07T02:25:23.550Z,67.70
2019-02-07T02:27:52.815Z,68.80
2019-02-07T02:30:27.428Z,68.10
2019-02-07T02:32:56.305Z,68.40
2019-02-07T02:35:25.604Z,67.90
2019-02-07T02:37:54.525Z,67.80
2019-02-07T02:40:23.558Z,68.50
2019-02-07T02:42:52.659Z,68.20
2019-02-07T02:45:21.983Z,68.80
2019-02-07T02:47:51.416Z,70.60
2019-02-07T02:50:23.074Z,71.30
2019-02-07T02:52:52.181Z,71.70
2019-02-07T02:55:29.580Z,72.20
2019-02-07T02:57:58.554Z,71.90
2019-02-07T03:00:39.506Z,71.80
2019-02-07T03:03:26.204Z,70.70
2019-02-07T03:06:05.721Z,70.00
2019-02-07T03:08:52.622Z,68.90
2019-02-07T03:11:43.517Z,68.70
2019-02-07T03:14:29.898Z,67.40
2019-02-07T03:17:08.973Z,68.10
2019-02-07T03:19:55.756Z,68.10
2019-02-07T03:22:42.736Z,67.90
2019-02-07T03:25:33.947Z,69.00
2019-02-07T03:28:20.697Z,69.40
2019-02-07T03:31:08.699Z,69.20
2019-02-07T03:33:50.381Z,68.60
2019-02-07T03:36:25.563Z,68.40
2019-02-07T03:39:14.893Z,68.40
2019-02-07T03:42:01.622Z,68.40
2019-02-07T03:44:42.260Z,67.70
2019-02-07T03:47:21.414Z,68.80
2019-02-07T03:50:12.452Z,68.80
2019-02-07T03:52:58.680Z,68.20
2019-02-07T03:55:35.334Z,67.50
2019-02-07T03:58:19.790Z,67.10
2019-02-07T04:01:07.985Z,66.90
2019-02-07T04:03:50.612Z,67.00
2019-02-07T04:06:27.907Z,65.80
2019-02-07T04:09:23.365Z,65.20
2019-02-07T04:12:26.342Z,65.10
2019-02-07T04:15:12.858Z,65.40
2019-02-07T04:18:03.694Z,64.60
2019-02-07T04:20:50.425Z,63.30
2019-02-07T04:23:36.863Z,64.10
2019-02-07T04:26:27.801Z,64.80
2019-02-07T04:29:15.176Z,65.60
2019-02-07T04:32:02.587Z,66.90
2019-02-07T04:34:49.231Z,70.90
2019-02-07T04:37:33.253Z,70.40
2019-02-07T04:40:20.360Z,71.60
2019-02-07T04:43:24.477Z,70.00
2019-02-07T04:46:11.063Z,68.50
2019-02-07T04:49:04.847Z,69.00
2019-02-07T04:51:45.666Z,69.60
2019-02-07T04:54:30.041Z,70.20
2019-02-07T04:57:22.147Z,69.30
2019-02-07T05:00:09.873Z,69.30
2019-02-07T05:02:52.710Z,69.40
2019-02-07T05:05:55.569Z,69.90
2019-02-07T05:08:43.692Z,68.70
2019-02-07T05:11:38.541Z,67.80
2019-02-07T05:14:25.202Z,68.00
2019-02-07T05:17:19.080Z,66.60
2019-02-07T05:20:05.627Z,66.00
2019-02-07T05:22:47.959Z,66.00
2019-02-07T05:25:42.092Z,66.00
2019-02-07T05:28:28.855Z,64.50
2019-02-07T05:31:06.627Z,65.80
2019-02-07T05:34:06.570Z,64.00
2019-02-07T05:36:53.426Z,65.10
2019-02-07T05:39:40.415Z,65.70
2019-02-07T05:42:43.244Z,65.20
2019-02-07T05:45:34.459Z,64.00
2019-02-07T05:48:23.179Z,63.80
2019-02-07T05:51:09.558Z,64.60
2019-02-07T05:53:50.704Z,64.20
2019-02-07T05:56:41.836Z,64.20
2019-02-07T05:59:27.435Z,64.00
2019-02-07T06:02:11.225Z,63.70
2019-02-07T06:04:54.294Z,64.90
2019-02-07T06:07:40.967Z,66.30
2019-02-07T06:10:44.710Z,66.70
2019-02-07T06:13:35.607Z,67.30
2019-02-07T06:16:16.339Z,68.40
2019-02-07T06:19:05.518Z,69.10
2019-02-07T06:21:48.255Z,68.50
2019-02-07T06:24:43.737Z,65.20
2019-02-07T06:27:46.951Z,60.10
2019-02-07T06:30:41.408Z,60.30
2019-02-07T06:33:41.611Z,57.00
2019-02-07T06:36:32.422Z,55.20
2019-02-07T06:39:29.671Z,53.10
2019-02-07T06:42:13.581Z,55.50
2019-02-07T06:44:53.528Z,55.50
2019-02-07T06:47:35.479Z,53.30
2019-02-07T06:50:36.068Z,51.80
2019-02-07T06:53:19.001Z,53.10
2019-02-07T06:56:05.385Z,53.00
2019-02-07T06:59:02.423Z,53.90
2019-02-07T07:01:48.739Z,54.30
2019-02-07T07:04:30.550Z,53.90
2019-02-07T07:07:21.912Z,53.10
2019-02-07T07:10:08.404Z,53.30
2019-02-07T07:12:59.666Z,51.90
2019-02-07T07:15:40.321Z,53.30
2019-02-07T07:18:27.232Z,52.30
2019-02-07T07:21:13.939Z,51.20
2019-02-07T07:24:00.707Z,50.00
2019-02-07T07:26:43.583Z,50.30
2019-02-07T07:29:25.654Z,50.40
2019-02-07T07:32:19.462Z,49.70
2019-02-07T07:35:12.070Z,49.20
2019-02-07T07:38:08.835Z,47.80
2019-02-07T07:40:55.639Z,49.00
2019-02-07T07:43:38.933Z,46.40
2019-02-07T07:46:45.160Z,43.50
2019-02-07T07:49:30.111Z,42.70
2019-02-07T07:52:21.439Z,43.00
2019-02-07T07:55:12.153Z,41.30
2019-02-07T07:57:56.711Z,42.00
2019-02-07T08:00:53.815Z,41.30
2019-02-07T08:03:33.548Z,39.50
2019-02-07T08:06:12.554Z,39.00
2019-02-07T08:08:59.167Z,39.50
2019-02-07T08:11:38.323Z,36.80
2019-02-07T08:14:26.409Z,36.90
2019-02-07T08:17:21.288Z,35.10
2019-02-07T08:20:07.785Z,31.90
2019-02-07T08:22:54.168Z,32.90
2019-02-07T08:25:35.270Z,31.70
2019-02-07T08:28:13.727Z,28.40
2019-02-07T08:30:54.847Z,27.50
2019-02-07T08:33:49.072Z,27.10
2019-02-07T08:36:49.038Z,26.50
2019-02-07T08:39:33.220Z,24.50
2019-02-07T08:42:21.452Z,24.00
2019-02-07T08:45:18.890Z,25.00
2019-02-07T08:48:03.870Z,25.80
2019-02-07T08:50:51.587Z,25.00
2019-02-07T08:53:42.448Z,23.20
2019-02-07T08:56:27.589Z,24.40
2019-02-07T08:59:07.744Z,22.70
2019-02-07T09:01:54.627Z,22.10
2019-02-07T09:04:37.475Z,22.50
2019-02-07T09:07:20.456Z,19.50
2019-02-07T09:10:01.180Z,19.80
2019-02-07T09:12:47.827Z,20.10
2019-02-07T09:15:26.716Z,20.20
2019-02-07T09:18:14.670Z,18.50
2019-02-07T09:21:08.465Z,21.20
2019-02-07T09:23:52.651Z,18.00
2019-02-07T09:26:38.833Z,20.10
2019-02-07T09:29:33.866Z,18.90
2019-02-07T09:32:33.251Z,19.00
2019-02-07T09:35:15.711Z,18.40
2019-02-07T09:38:09.871Z,20.00
2019-02-07T09:40:50.900Z,19.70
2019-02-07T09:43:38.048Z,20.30
2019-02-07T09:46:24.700Z,21.20
2019-02-07T09:49:11.398Z,23.10
2019-02-07T09:51:58.202Z,21.50
2019-02-07T09:54:40.775Z,22.00
2019-02-07T09:57:25.656Z,23.60
2019-02-07T10:00:07.770Z,22.50
2019-02-07T10:02:56.995Z,23.00
2019-02-07T10:05:43.741Z,25.60
2019-02-07T10:08:30.880Z,25.10
2019-02-07T10:11:11.982Z,26.80
2019-02-07T10:13:58.319Z,26.00
2019-02-07T10:16:52.294Z,26.90
2019-02-07T10:19:39.128Z,25.80
2019-02-07T10:22:17.785Z,24.90
2019-02-07T10:25:02.314Z,26.40
2019-02-07T10:28:02.511Z,23.80
2019-02-07T10:30:59.640Z,25.20
2019-02-07T10:42:28.578Z,25.40
2019-02-07T10:49:25.196Z,26.30
2019-02-07T10:53:20.384Z,25.60
2019-02-07T10:56:44.750Z,25.30
2019-02-07T11:06:57.668Z,23.40
2019-02-07T11:10:34.286Z,24.80
2019-02-07T11:25:57.251Z,24.60
2019-02-07T12:19:03.271Z,21.00
2019-02-07T13:11:57.922Z,15.60
2019-02-07T13:18:57.364Z,12.70
2019-02-07T13:44:55.035Z,14.70
2019-02-07T13:49:58.485Z,15.10
2019-02-07T13:51:23.647Z,14.60
2019-02-07T13:55:37.315Z,14.80
2019-02-07T13:58:48.498Z,14.50
2019-02-07T14:02:04.563Z,15.10
2019-02-07T14:04:58.693Z,15.40
2019-02-07T14:13:27.878Z,16.10
2019-02-07T14:15:13.462Z,16.60
2019-02-07T14:33:51.593Z,20.20
2019-02-07T14:41:04.470Z,19.20
2019-02-07T15:05:51.761Z,22.50
2019-02-07T15:12:57.853Z,24.10
2019-02-07T15:15:27.434Z,29.40
2019-02-07T15:17:57.490Z,33.90
2019-02-07T15:21:19.753Z,38.00
2019-02-07T15:24:03.723Z,38.40
2019-02-07T15:26:36.944Z,44.70
2019-02-07T15:29:16.000Z,48.30
2019-02-07T15:32:00.894Z,54.80
2019-02-07T15:34:53.788Z,59.30
2019-02-07T15:37:27.007Z,60.00
2019-02-07T15:40:00.631Z,65.10
2019-02-07T15:42:35.239Z,69.10
2019-02-07T15:45:20.007Z,73.60
2019-02-07T15:48:02.159Z,74.50
2019-02-07T15:50:38.271Z,75.60
2019-02-07T15:53:09.501Z,79.00
2019-02-07T15:55:56.833Z,82.30
2019-02-07T15:58:42.738Z,84.00
2019-02-07T16:01:54.338Z,85.80
2019-02-07T16:04:50.619Z,84.90
2019-02-07T16:09:39.678Z,85.70
2019-02-07T16:12:20.934Z,89.50
2019-02-07T16:15:31.734Z,91.40
2019-02-07T16:19:25.791Z,92.30
2019-02-07T16:42:29.530Z,93.60
2019-02-07T16:45:23.053Z,99.90
2019-02-07T16:47:52.035Z,99.90
2019-02-07T16:50:21.342Z,99.90
2019-02-07T16:52:50.211Z,99.90
2019-02-07T16:55:19.087Z,99.90
2019-02-07T16:57:47.951Z,99.90
2019-02-07T17:00:22.434Z,99.90
2019-02-07T17:02:51.775Z,99.90
2019-02-07T17:05:22.479Z,99.90
2019-02-07T17:07:51.844Z,99.90
2019-02-07T17:10:23.338Z,99.90
2019-02-07T17:12:52.620Z,99.90
2019-02-07T17:15:21.636Z,99.90
2019-02-07T17:17:50.691Z,99.90
2019-02-07T17:20:23.635Z,99.90
2019-02-07T17:22:52.732Z,99.90
2019-02-07T17:25:21.987Z,99.90
2019-02-07T17:27:50.831Z,99.90
2019-02-07T17:30:21.592Z,99.90
2019-02-07T17:32:51.348Z,99.90
2019-02-07T17:35:20.675Z,99.90
2019-02-07T17:37:49.864Z,99.90
2019-02-07T17:40:19.842Z,99.90
2019-02-07T17:42:48.744Z,99.90
2019-02-07T17:45:20.334Z,99.90
2019-02-07T17:47:50.306Z,99.90
2019-02-07T17:50:30.187Z,99.90
2019-02-07T17:52:59.346Z,99.90
2019-02-07T17:55:28.415Z,99.90
2019-02-07T17:57:57.294Z,99.90
2019-02-07T18:00:48.811Z,99.90
2019-02-07T18:03:17.676Z,99.90
2019-02-07T18:05:46.742Z,99.90
2019-02-07T18:08:15.752Z,99.90
2019-02-07T18:10:44.932Z,99.90
2019-02-07T18:13:14.029Z,99.90
2019-02-07T18:15:42.946Z,99.90
2019-02-07T18:18:11.877Z,99.90
2019-02-07T18:20:40.838Z,99.90
2019-02-07T18:23:09.808Z,99.90
2019-02-07T18:25:38.858Z,99.90
2019-02-07T18:28:08.039Z,99.90
2019-02-07T18:30:36.949Z,99.90
2019-02-07T18:33:05.831Z,99.90
2019-02-07T18:35:34.736Z,99.90
2019-02-07T18:38:05.959Z,99.90
2019-02-07T18:40:34.930Z,99.90
2019-02-07T18:43:04.166Z,99.90
2019-02-07T18:45:33.029Z,99.90
2019-02-07T18:48:01.914Z,99.90
2019-02-07T18:50:35.059Z,99.90
2019-02-07T18:53:04.238Z,99.90
2019-02-07T18:55:33.596Z,99.90
2019-02-07T18:58:03.400Z,99.90
2019-02-07T19:00:33.103Z,99.90
2019-02-07T19:03:02.222Z,99.90
2019-02-07T19:05:32.209Z,99.90
2019-02-07T19:08:00.976Z,99.90
2019-02-07T19:10:30.093Z,99.90
2019-02-07T19:12:59.536Z,99.90
2019-02-07T19:15:40.369Z,99.90
2019-02-07T19:18:09.251Z,99.90
2019-02-07T19:20:38.151Z,99.90
2019-02-07T19:23:07.218Z,99.90
2019-02-07T19:25:36.854Z,99.90
2019-02-07T19:28:06.918Z,99.90
2019-02-07T19:30:37.085Z,99.90
2019-02-07T19:33:06.222Z,99.90
2019-02-07T19:35:35.023Z,99.90
2019-02-07T19:38:04.047Z,99.90
2019-02-07T19:40:32.998Z,99.90
2019-02-07T19:43:02.219Z,99.90
2019-02-07T19:45:31.608Z,99.90
2019-02-07T19:48:00.841Z,99.90
2019-02-07T19:50:29.832Z,99.90
2019-02-07T19:52:59.651Z,99.90
2019-02-07T19:55:29.256Z,99.90
2019-02-07T19:57:58.707Z,99.90
2019-02-07T20:00:29.834Z,99.90
2019-02-07T20:02:58.999Z,99.90
2019-02-07T20:05:28.044Z,99.90
2019-02-07T20:07:56.934Z,99.90
2019-02-07T20:10:26.747Z,99.90
2019-02-07T20:12:56.276Z,99.90
2019-02-07T20:15:29.973Z,99.90
2019-02-07T20:17:59.938Z,99.90
2019-02-07T20:20:29.742Z,99.90
2019-02-07T20:22:58.873Z,99.90
2019-02-07T20:25:27.883Z,99.90
2019-02-07T20:27:57.668Z,99.90
2019-02-07T20:30:28.796Z,99.90
2019-02-07T20:32:58.140Z,99.90
2019-02-07T20:35:27.975Z,99.90
2019-02-07T20:37:56.996Z,99.90
2019-02-07T20:40:26.474Z,99.90
2019-02-07T20:42:55.294Z,99.90
2019-02-07T20:45:26.251Z,99.90
2019-02-07T20:47:55.715Z,99.90
2019-02-07T20:50:25.701Z,99.90
2019-02-07T20:52:55.134Z,99.90
2019-02-07T20:55:24.182Z,99.90
2019-02-07T20:57:53.930Z,99.90
2019-02-07T21:00:25.788Z,99.90
2019-02-07T21:02:56.095Z,99.90
2019-02-07T21:05:28.092Z,99.90
2019-02-07T21:07:57.346Z,99.90
2019-02-07T21:10:27.248Z,99.90
2019-02-07T21:12:56.549Z,99.90
2019-02-07T21:15:26.078Z,99.90
2019-02-07T21:17:55.339Z,99.90
2019-02-07T21:20:26.291Z,99.90
2019-02-07T21:23:01.362Z,99.90
2019-02-07T21:25:39.267Z,99.90
2019-02-07T21:28:08.779Z,99.90
2019-02-07T21:30:37.988Z,99.90
2019-02-07T21:33:07.131Z,99.90
2019-02-07T21:35:36.173Z,99.90
2019-02-07T21:38:07.798Z,99.90
2019-02-07T21:40:36.628Z,99.90
2019-02-07T21:43:05.831Z,99.90
2019-02-07T21:45:35.055Z,99.90
2019-02-07T21:48:05.221Z,99.90
2019-02-07T21:50:34.304Z,99.90
2019-02-07T21:53:04.181Z,99.90
2019-02-07T21:55:33.033Z,99.90
2019-02-07T21:58:01.883Z,99.90
2019-02-07T22:00:33.539Z,99.90
2019-02-07T22:03:02.499Z,99.90
2019-02-07T22:05:31.441Z,99.90
2019-02-07T22:08:00.361Z,99.90
2019-02-07T22:10:29.359Z,99.90
2019-02-07T22:12:58.579Z,99.90
2019-02-07T22:15:28.446Z,99.90
2019-02-07T22:17:57.338Z,99.90
2019-02-07T22:20:26.727Z,99.90
2019-02-07T22:22:56.019Z,99.90
2019-02-07T22:25:25.779Z,99.90
2019-02-07T22:27:55.025Z,99.90
2019-02-07T22:30:29.683Z,99.90
2019-02-07T22:32:59.344Z,99.90
2019-02-07T22:35:28.973Z,99.90
2019-02-07T22:37:58.304Z,99.90
2019-02-07T22:40:27.567Z,99.90
2019-02-07T22:42:56.747Z,99.90
2019-02-07T22:45:26.233Z,99.90
2019-02-07T22:47:55.623Z,99.90
2019-02-07T22:50:25.915Z,99.90
2019-02-07T22:52:56.930Z,99.90
2019-02-07T22:55:25.888Z,99.90
2019-02-07T22:57:55.064Z,99.90
2019-02-07T23:01:10.827Z,99.90
2019-02-07T23:03:59.911Z,99.90
2019-02-07T23:06:28.978Z,99.90
2019-02-07T23:08:58.259Z,99.90
2019-02-07T23:11:27.674Z,99.90
2019-02-07T23:13:56.489Z,99.90
2019-02-07T23:16:25.568Z,99.90
2019-02-07T23:18:54.985Z,99.90
2019-02-07T23:21:23.895Z,99.90
2019-02-07T23:23:52.666Z,99.90
2019-02-07T23:26:21.796Z,99.90
2019-02-07T23:28:50.895Z,99.90
2019-02-07T23:31:20.463Z,99.90
2019-02-07T23:33:49.254Z,99.90
2019-02-07T23:36:18.091Z,99.90
2019-02-07T23:38:47.447Z,99.90
2019-02-07T23:41:16.282Z,99.90
2019-02-07T23:43:46.357Z,99.90
2019-02-07T23:46:15.311Z,99.90
2019-02-07T23:48:44.433Z,99.90
2019-02-07T23:51:13.403Z,99.90
2019-02-07T23:53:42.467Z,99.60
2019-02-07T23:56:11.338Z,98.80
2019-02-07T23:58:40.157Z,98.40
